Time;durP1;ratioP1;P1;durP2;ratioP2;P2;SDS_P1;SDS_P2;PMS_P1;PMS_P2;Temp;Humidity;BMP_temperature;BMP_pressure;BME280_temperature;BME280_humidity;BME280_pressure;Samples;Min_cycle;Max_cycle;Signal;HPM_P1;HPM_P2
2022/09/08 00:01:30;;;;;;;8.25;3.42;;;;;;;16.75;100.00;100885.44;5051586;28;20083;-73
2022/09/08 00:03:55;;;;;;;9.27;3.88;;;;;;;16.67;100.00;100882.28;5051743;28;20049;-73
2022/09/08 00:06:21;;;;;;;13.13;3.97;;;;;;;16.71;100.00;100887.34;5050889;28;20380;-73
2022/09/08 00:08:47;;;;;;;13.18;4.28;;;;;;;16.70;100.00;100893.50;5047868;28;20120;-73
2022/09/08 00:11:21;;;;;;;13.13;4.93;;;;;;;16.70;100.00;100896.13;5052804;28;20024;-74
2022/09/08 00:13:48;;;;;;;12.88;4.88;;;;;;;16.70;100.00;100903.19;5051463;28;20025;-75
2022/09/08 00:16:18;;;;;;;12.25;4.50;;;;;;;16.63;100.00;100897.38;5046554;28;20025;-76
2022/09/08 00:18:44;;;;;;;13.90;4.82;;;;;;;16.62;100.00;100880.72;5053515;28;20424;-76
2022/09/08 00:21:10;;;;;;;9.82;4.53;;;;;;;16.62;100.00;100880.72;5052972;28;20021;-75
2022/09/08 00:23:36;;;;;;;12.75;4.60;;;;;;;16.58;100.00;100870.44;5053075;28;20044;-76
2022/09/08 00:26:01;;;;;;;14.75;4.68;;;;;;;16.57;100.00;100866.91;5035442;28;20505;-76
2022/09/08 00:28:26;;;;;;;9.68;4.38;;;;;;;16.57;100.00;100856.38;5032636;28;20033;-75
2022/09/08 00:30:54;;;;;;;13.35;4.60;;;;;;;16.56;100.00;100851.22;5044840;28;20021;-76
2022/09/08 00:33:21;;;;;;;11.75;4.32;;;;;;;16.51;100.00;100856.72;5048221;28;20091;-75
2022/09/08 00:35:51;;;;;;;8.82;4.43;;;;;;;16.52;100.00;100854.94;5039980;28;20055;-75
2022/09/08 00:38:19;;;;;;;16.15;4.80;;;;;;;16.51;100.00;100859.34;5036553;28;20018;-76
2022/09/08 00:40:46;;;;;;;8.27;4.20;;;;;;;16.49;100.00;100853.28;5047992;28;20033;-76
2022/09/08 00:43:30;;;;;;;9.85;4.32;;;;;;;16.43;100.00;100853.59;5036911;28;20478;-75
2022/09/08 00:45:58;;;;;;;10.15;4.10;;;;;;;16.39;100.00;100854.66;5051611;28;20053;-75
2022/09/08 00:48:24;;;;;;;11.43;4.38;;;;;;;16.42;100.00;100853.66;5052227;28;20045;-75
2022/09/08 00:50:51;;;;;;;11.93;4.07;;;;;;;16.34;100.00;100840.84;5045409;28;20048;-75
2022/09/08 00:53:19;;;;;;;11.55;4.35;;;;;;;16.35;100.00;100837.31;5045350;28;20037;-75
2022/09/08 00:55:44;;;;;;;8.52;4.13;;;;;;;16.34;100.00;100831.19;5049582;28;20508;-74
2022/09/08 00:58:10;;;;;;;9.45;4.45;;;;;;;16.38;100.00;100813.47;5053003;28;20032;-75
2022/09/08 01:00:38;;;;;;;10.75;4.82;;;;;;;16.35;100.00;100811.00;5052449;28;20040;-74
2022/09/08 01:03:10;;;;;;;12.65;4.75;;;;;;;16.33;100.00;100826.00;5052419;28;20047;-75
2022/09/08 01:05:58;;;;;;;12.75;4.88;;;;;;;16.35;100.00;100816.28;5051529;28;20029;-75
2022/09/08 01:14:49;;;;;;;12.80;4.78;;;;;;;16.39;100.00;100808.16;5050110;28;20040;-74
2022/09/08 01:17:20;;;;;;;11.70;5.18;;;;;;;16.43;100.00;100808.84;5051944;28;20078;-75
2022/09/08 01:19:47;;;;;;;13.35;5.57;;;;;;;16.43;100.00;100805.38;5052480;28;20025;-74
2022/09/08 01:22:27;;;;;;;8.55;4.20;;;;;;;16.45;100.00;100792.97;5050651;28;20025;-74
2022/09/08 01:25:08;;;;;;;7.82;4.20;;;;;;;16.50;100.00;100793.63;5039040;28;20036;-74
2022/09/08 01:27:38;;;;;;;8.95;4.20;;;;;;;16.49;100.00;100790.13;5050228;28;20116;-74
2022/09/08 01:30:06;;;;;;;8.73;4.40;;;;;;;16.45;100.00;100787.72;5051584;28;20469;-74
2022/09/08 01:32:34;;;;;;;10.77;4.55;;;;;;;16.37;100.00;100783.69;5051660;28;20082;-74
2022/09/08 01:35:00;;;;;;;9.52;4.28;;;;;;;16.36;100.00;100783.78;5049592;28;20090;-74
2022/09/08 01:37:25;;;;;;;10.30;4.20;;;;;;;16.35;100.00;100787.34;5051250;28;20021;-75
2022/09/08 01:39:51;;;;;;;8.48;3.85;;;;;;;16.28;100.00;100791.16;5051730;28;20036;-74
2022/09/08 01:42:16;;;;;;;7.93;3.70;;;;;;;16.33;100.00;100778.66;5040198;28;20485;-74
2022/09/08 01:44:43;;;;;;;12.93;3.90;;;;;;;16.20;100.00;100785.44;5044534;28;20036;-75
2022/09/08 01:47:09;;;;;;;13.80;3.72;;;;;;;16.19;100.00;100784.59;5052165;28;20068;-76
2022/09/08 01:49:34;;;;;;;12.30;3.80;;;;;;;16.17;100.00;100782.94;5049471;28;20400;-76
2022/09/08 01:52:00;;;;;;;9.32;3.70;;;;;;;16.18;100.00;100780.22;5051050;28;20104;-76
2022/09/08 01:54:27;;;;;;;8.57;3.90;;;;;;;16.14;100.00;100778.69;5043206;28;20083;-76
2022/09/08 01:56:53;;;;;;;10.00;4.40;;;;;;;16.08;100.00;100773.69;5046505;28;20625;-75
2022/09/08 01:59:18;;;;;;;9.63;3.85;;;;;;;16.10;100.00;100771.88;5048727;28;20033;-75
2022/09/08 02:01:43;;;;;;;9.98;3.63;;;;;;;16.18;100.00;100755.72;5051468;28;20029;-75
2022/09/08 02:04:08;;;;;;;12.57;4.10;;;;;;;16.13;100.00;100764.69;5048467;28;20400;-75
2022/09/08 02:06:34;;;;;;;7.65;3.50;;;;;;;16.06;100.00;100752.75;5049982;28;20036;-74
2022/09/08 02:08:59;;;;;;;8.15;4.45;;;;;;;16.14;100.00;100757.63;5051538;28;20447;-75
2022/09/08 02:11:24;;;;;;;10.65;3.88;;;;;;;16.17;100.00;100744.34;5051622;28;20055;-74
2022/09/08 02:13:50;;;;;;;11.05;3.95;;;;;;;16.13;100.00;100741.00;5046720;28;20029;-75
2022/09/08 02:16:16;;;;;;;7.13;3.20;;;;;;;16.05;100.00;100750.19;5051614;28;20028;-74
2022/09/08 02:18:41;;;;;;;6.63;3.33;;;;;;;16.00;100.00;100747.78;5051199;28;20100;-75
2022/09/08 02:21:07;;;;;;;7.95;3.20;;;;;;;15.97;100.00;100745.28;5050779;28;20155;-74
2022/09/08 02:23:34;;;;;;;5.13;3.03;;;;;;;15.95;100.00;100747.13;5048934;28;20086;-74
2022/09/08 02:25:59;;;;;;;7.65;3.75;;;;;;;15.93;100.00;100742.91;5049198;28;20425;-74
2022/09/08 02:28:24;;;;;;;10.30;3.22;;;;;;;15.92;100.00;100744.66;5051204;28;20086;-74
2022/09/08 02:30:49;;;;;;;11.95;3.80;;;;;;;15.96;100.00;100747.97;5051083;28;20043;-74
2022/09/08 02:33:16;;;;;;;6.57;3.50;;;;;;;15.98;100.00;100738.25;5049424;28;20021;-74
2022/09/08 02:35:41;;;;;;;9.63;4.40;;;;;;;16.03;100.00;100731.00;5050934;28;20061;-74
2022/09/08 02:38:06;;;;;;;10.35;4.00;;;;;;;16.00;100.00;100737.25;5051246;28;20096;-74
2022/09/08 02:40:32;;;;;;;7.65;3.60;;;;;;;15.88;100.00;100732.59;5050203;28;20021;-74
2022/09/08 02:42:59;;;;;;;7.95;3.92;;;;;;;15.84;100.00;100738.91;5033951;28;20041;-74
2022/09/08 02:45:25;;;;;;;9.85;4.65;;;;;;;15.86;100.00;100743.19;5049392;28;20044;-74
2022/09/08 02:47:50;;;;;;;11.55;4.88;;;;;;;15.80;100.00;100737.38;5050215;28;20380;-74
2022/09/08 02:50:15;;;;;;;11.30;4.65;;;;;;;15.81;100.00;100734.66;5050768;28;20022;-74
2022/09/08 02:52:41;;;;;;;8.20;4.72;;;;;;;15.74;100.00;100741.13;5050823;28;20029;-74
2022/09/08 02:55:06;;;;;;;10.82;4.20;;;;;;;15.78;100.00;100736.56;5048334;28;20017;-74
2022/09/08 02:57:32;;;;;;;8.90;4.13;;;;;;;15.77;100.00;100735.72;5050654;28;20028;-74
2022/09/08 02:59:57;;;;;;;9.02;4.53;;;;;;;15.74;100.00;100732.38;5051181;28;20021;-74
2022/09/08 03:02:22;;;;;;;10.18;4.93;;;;;;;15.71;100.00;100728.13;5050113;28;20021;-74
2022/09/08 03:04:49;;;;;;;10.65;4.70;;;;;;;15.67;100.00;100735.28;5049613;28;20032;-74
2022/09/08 03:07:15;;;;;;;9.85;4.93;;;;;;;15.64;100.00;100732.78;5051138;28;20086;-74
2022/09/08 03:09:40;;;;;;;11.15;5.25;;;;;;;15.55;100.00;100741.06;5050121;28;20025;-74
2022/09/08 03:12:06;;;;;;;15.02;6.07;;;;;;;15.57;100.00;100738.41;5051013;28;20602;-74
2022/09/08 03:14:31;;;;;;;11.95;6.00;;;;;;;15.55;100.00;100741.06;5047079;28;20021;-74
2022/09/08 03:16:56;;;;;;;9.32;4.88;;;;;;;15.53;100.00;100735.06;5050119;28;20025;-74
2022/09/08 03:19:21;;;;;;;9.60;5.70;;;;;;;15.55;100.00;100740.22;5052287;28;20460;-75
2022/09/08 03:21:47;;;;;;;13.05;5.35;;;;;;;15.55;100.00;100741.06;5054427;28;20489;-74
2022/09/08 03:24:13;;;;;;;11.80;5.78;;;;;;;15.57;100.00;100735.78;5047239;28;20025;-75
2022/09/08 03:26:38;;;;;;;8.57;5.65;;;;;;;15.51;100.00;100741.31;5053976;28;20029;-75
2022/09/08 03:29:06;;;;;;;11.43;6.03;;;;;;;15.50;100.00;100744.81;5053696;28;20451;-75
2022/09/08 03:31:31;;;;;;;11.25;5.90;;;;;;;15.49;100.00;100751.84;5054151;28;20021;-75
2022/09/08 03:33:56;;;;;;;12.77;5.65;;;;;;;15.49;100.00;100759.75;5053330;28;20025;-75
2022/09/08 03:36:22;;;;;;;10.13;5.70;;;;;;;15.47;100.00;100766.84;5053380;28;20797;-74
2022/09/08 03:38:48;;;;;;;10.43;4.93;;;;;;;15.44;100.00;100783.59;5054470;28;20083;-75
2022/09/08 03:41:14;;;;;;;8.93;5.32;;;;;;;15.43;100.00;100796.78;5051606;28;20021;-75
2022/09/08 03:43:44;;;;;;;12.82;5.50;;;;;;;15.38;100.00;100778.63;5038097;28;20044;-75
2022/09/08 03:46:10;;;;;;;13.00;6.07;;;;;;;15.43;100.00;100739.88;5053562;28;20060;-76
2022/09/08 03:48:36;;;;;;;12.98;5.90;;;;;;;15.45;100.00;100732.75;5053561;28;20055;-76
2022/09/08 03:51:12;;;;;;;12.88;5.57;;;;;;;15.48;100.00;100741.44;5053819;28;20021;-76
2022/09/08 03:53:38;;;;;;;9.68;5.20;;;;;;;15.45;100.00;100727.50;5052194;28;20108;-76
2022/09/08 03:56:08;;;;;;;11.82;4.85;;;;;;;15.36;100.00;100727.91;5054166;28;20104;-76
2022/09/08 03:58:35;;;;;;;12.85;4.88;;;;;;;15.45;100.00;100731.91;5052669;28;20067;-76
2022/09/08 04:01:01;;;;;;;15.10;5.05;;;;;;;15.37;100.00;100728.78;5054218;28;20019;-76
2022/09/08 04:03:28;;;;;;;8.98;4.55;;;;;;;15.29;100.00;100731.75;5051038;28;20155;-76
2022/09/08 04:05:53;;;;;;;12.48;4.88;;;;;;;15.28;100.00;100724.78;5053364;28;20021;-76
2022/09/08 04:08:19;;;;;;;10.50;4.80;;;;;;;15.31;100.00;100727.28;5053658;28;20021;-76
2022/09/08 04:10:44;;;;;;;12.23;5.10;;;;;;;15.30;100.00;100722.94;5053523;28;20039;-76
2022/09/08 04:13:11;;;;;;;11.13;4.95;;;;;;;15.29;100.00;100728.28;5050490;28;20127;-76
2022/09/08 04:15:38;;;;;;;13.85;5.30;;;;;;;15.26;100.00;100731.03;5053053;28;20031;-76
2022/09/08 04:18:03;;;;;;;12.15;5.07;;;;;;;15.23;100.00;100732.00;5053683;28;20025;-76
2022/09/08 04:20:28;;;;;;;12.40;5.32;;;;;;;15.29;100.00;100733.53;5052211;28;20472;-76
2022/09/08 04:22:54;;;;;;;15.75;5.57;;;;;;;15.23;100.00;100732.84;5053058;28;20036;-76
2022/09/08 04:25:19;;;;;;;10.90;5.68;;;;;;;15.28;100.00;100731.81;5049874;28;20057;-76
2022/09/08 04:27:44;;;;;;;12.50;5.47;;;;;;;15.33;100.00;100737.72;5052660;28;20374;-76
2022/09/08 04:30:10;;;;;;;12.48;5.35;;;;;;;15.31;100.00;100742.19;5053306;28;20049;-76
2022/09/08 04:32:37;;;;;;;13.65;5.57;;;;;;;15.28;100.00;100747.59;5051867;28;20021;-76
2022/09/08 04:35:03;;;;;;;13.18;5.78;;;;;;;15.29;100.00;100739.63;5051476;28;20072;-76
2022/09/08 04:37:28;;;;;;;9.45;6.07;;;;;;;15.40;100.00;100750.53;5052703;28;20423;-76
2022/09/08 04:39:53;;;;;;;12.02;6.47;;;;;;;15.37;100.00;100752.44;5052851;28;20069;-76
2022/09/08 04:42:21;;;;;;;13.75;6.07;;;;;;;15.35;100.00;100743.75;5041996;28;20397;-76
2022/09/08 04:44:46;;;;;;;12.25;5.82;;;;;;;15.41;100.00;100746.13;5046866;28;20040;-76
2022/09/08 04:47:12;;;;;;;12.25;5.85;;;;;;;15.41;100.00;100751.38;5052291;28;20032;-76
2022/09/08 04:49:37;;;;;;;14.02;5.68;;;;;;;15.37;100.00;100749.81;5042242;28;20521;-75
2022/09/08 04:52:02;;;;;;;13.82;5.90;;;;;;;15.37;100.00;100749.81;5053139;28;20021;-76
2022/09/08 04:54:28;;;;;;;11.00;5.53;;;;;;;15.36;100.00;100748.94;5039556;28;20461;-76
2022/09/08 04:56:53;;;;;;;13.40;6.07;;;;;;;15.38;100.00;100743.63;5049841;28;20079;-76
2022/09/08 04:59:18;;;;;;;14.27;6.35;;;;;;;15.40;100.00;100760.16;5052686;28;20039;-76
2022/09/08 05:01:43;;;;;;;10.98;5.60;;;;;;;15.45;100.00;100753.78;5051763;28;20527;-76
2022/09/08 05:04:09;;;;;;;12.55;6.10;;;;;;;15.45;100.00;100759.03;5051742;28;20473;-76
2022/09/08 05:06:35;;;;;;;11.68;5.85;;;;;;;15.42;100.00;100753.91;5052371;28;20079;-76
2022/09/08 05:09:02;;;;;;;15.82;6.15;;;;;;;15.45;100.00;100758.19;5052037;28;20112;-76
2022/09/08 05:11:31;;;;;;;14.20;5.97;;;;;;;15.43;100.00;100760.00;5049974;28;20457;-76
2022/09/08 05:13:56;;;;;;;16.30;5.57;;;;;;;15.44;100.00;100761.75;5049160;28;20047;-76
2022/09/08 05:16:24;;;;;;;16.08;6.38;;;;;;;15.45;100.00;100764.28;5051501;28;20541;-76
2022/09/08 05:18:56;;;;;;;16.88;6.85;;;;;;;15.40;100.00;100765.41;5052461;28;20020;-76
2022/09/08 05:21:22;;;;;;;13.73;6.55;;;;;;;15.41;100.00;100769.75;5052438;28;20033;-76
2022/09/08 05:23:49;;;;;;;15.10;6.25;;;;;;;15.39;100.00;100763.72;5046053;28;20164;-76
2022/09/08 05:26:16;;;;;;;10.25;6.55;;;;;;;15.38;100.00;100772.53;5052411;28;20089;-76
2022/09/08 05:28:43;;;;;;;14.00;7.43;;;;;;;15.36;100.00;100767.31;5051269;28;20060;-76
2022/09/08 05:31:15;;;;;;;14.23;6.80;;;;;;;15.43;100.00;100758.28;5052511;28;20032;-76
2022/09/08 05:33:40;;;;;;;16.25;6.90;;;;;;;15.37;100.00;100755.91;5048901;28;20028;-76
2022/09/08 05:36:11;;;;;;;15.02;6.88;;;;;;;15.38;100.00;100752.34;5051607;28;20013;-76
2022/09/08 05:38:37;;;;;;;16.00;6.68;;;;;;;15.37;100.00;100757.69;5051730;28;20032;-76
2022/09/08 05:41:03;;;;;;;12.52;6.82;;;;;;;15.33;100.00;100756.09;5049900;28;21476;-76
2022/09/08 05:43:28;;;;;;;20.77;7.35;;;;;;;15.40;100.00;100757.53;5034084;28;20044;-76
2022/09/08 05:45:53;;;;;;;14.93;7.75;;;;;;;15.40;100.00;100761.03;5052022;28;20052;-76
2022/09/08 05:48:19;;;;;;;14.13;7.60;;;;;;;15.38;100.00;100762.84;5051750;28;20025;-76
2022/09/08 05:50:45;;;;;;;17.05;7.72;;;;;;;15.36;100.00;100767.31;5051190;28;20398;-76
2022/09/08 05:53:11;;;;;;;18.90;7.88;;;;;;;15.37;100.00;100769.03;5051972;28;20021;-76
2022/09/08 05:55:36;;;;;;;16.88;8.30;;;;;;;15.38;100.00;100759.38;5037946;28;20021;-76
2022/09/08 05:58:02;;;;;;;17.77;8.52;;;;;;;15.40;100.00;100757.53;5051116;28;20036;-76
2022/09/08 06:00:28;;;;;;;15.93;8.38;;;;;;;15.44;100.00;100761.75;5050298;28;20036;-76
2022/09/08 06:02:54;;;;;;;21.75;9.30;;;;;;;15.44;100.00;100761.75;5051960;28;20079;-76
2022/09/08 06:05:21;;;;;;;18.50;8.65;;;;;;;15.43;100.00;100760.00;5044653;28;20025;-76
2022/09/08 06:07:47;;;;;;;19.85;9.55;;;;;;;15.42;100.00;100763.56;5051429;28;20028;-76
2022/09/08 06:10:13;;;;;;;14.00;9.10;;;;;;;15.45;100.00;100764.28;5050715;28;20381;-76
2022/09/08 06:12:39;;;;;;;20.38;9.15;;;;;;;15.46;100.00;100770.38;5049143;28;20052;-76
2022/09/08 06:15:05;;;;;;;23.05;11.00;;;;;;;15.44;100.00;100769.63;5049538;28;20142;-76
2022/09/08 06:17:31;;;;;;;25.00;9.95;;;;;;;15.51;100.00;100771.03;5050893;28;20114;-75
2022/09/08 06:19:57;;;;;;;17.70;9.30;;;;;;;15.56;100.00;100766.41;5050057;28;20025;-76
2022/09/08 06:22:22;;;;;;;23.27;9.50;;;;;;;15.55;100.00;100759.47;5051281;28;20489;-75
2022/09/08 06:24:48;;;;;;;22.88;9.70;;;;;;;15.56;100.00;100761.16;5048870;28;20032;-75
2022/09/08 06:27:25;;;;;;;21.42;10.13;;;;;;;15.57;100.00;100756.78;5049604;28;20040;-75
2022/09/08 06:30:11;;;;;;;20.20;9.10;;;;;;;15.61;100.00;100767.06;5051512;28;20361;-75
2022/09/08 06:32:59;;;;;;;19.45;9.75;;;;;;;15.62;100.00;100766.16;5047616;28;20037;-75
2022/09/08 06:35:31;;;;;;;18.63;9.55;;;;;;;15.67;100.00;100769.47;5051442;28;20472;-75
2022/09/08 06:38:07;;;;;;;20.23;9.63;;;;;;;15.69;100.00;100774.63;5052018;28;20033;-75
2022/09/08 06:40:38;;;;;;;20.00;10.18;;;;;;;15.74;100.00;100767.41;5057735;28;20105;-74
2022/09/08 06:43:11;;;;;;;21.05;10.40;;;;;;;15.76;100.00;100781.34;5058721;28;20052;-74
2022/09/08 06:45:40;;;;;;;19.40;9.60;;;;;;;15.80;100.00;100776.78;5050739;28;20116;-74
2022/09/08 06:48:15;;;;;;;18.80;9.90;;;;;;;15.81;100.00;100778.47;5046033;28;20029;-74
2022/09/08 06:50:52;;;;;;;20.90;10.23;;;;;;;15.77;100.00;100783.03;5051119;28;20123;-74
2022/09/08 06:53:24;;;;;;;23.35;10.70;;;;;;;15.78;100.00;100786.50;5051065;28;20875;-74
2022/09/08 06:55:58;;;;;;;23.40;11.57;;;;;;;15.81;100.00;100783.75;5054938;28;20392;-74
2022/09/08 06:58:30;;;;;;;26.52;10.55;;;;;;;15.76;100.00;100773.44;5053255;28;20025;-74
2022/09/08 07:01:04;;;;;;;20.50;10.85;;;;;;;15.79;100.00;100783.78;5054027;28;20025;-74
2022/09/08 07:03:54;;;;;;;17.50;10.77;;;;;;;15.73;100.00;100780.59;5049642;28;20021;-77
2022/09/08 07:06:24;;;;;;;21.80;11.73;;;;;;;15.81;100.00;100778.47;5054255;28;20032;-77
2022/09/08 07:09:02;;;;;;;21.45;12.05;;;;;;;15.75;100.00;100782.25;5051365;28;20040;-76
2022/09/08 07:11:52;;;;;;;23.92;12.00;;;;;;;15.79;100.00;100778.53;5048268;28;20485;-78
2022/09/08 07:14:23;;;;;;;20.35;11.57;;;;;;;15.78;100.00;100781.25;5055928;28;20021;-77
2022/09/08 07:17:00;;;;;;;22.65;11.93;;;;;;;15.74;100.00;100784.94;5055565;28;20056;-77
2022/09/08 07:19:33;;;;;;;22.60;12.75;;;;;;;15.81;100.00;100778.47;5055471;28;20108;-77
2022/09/08 07:22:17;;;;;;;;;;;;;;;15.84;100.00;100781.81;5057602;28;20029;-77
2022/09/08 07:24:45;;;;;;;23.55;12.93;;;;;;;15.85;100.00;100791.41;5054543;28;19913;-77
2022/09/08 07:27:12;;;;;;;20.58;12.57;;;;;;;15.87;100.00;100781.69;5053474;28;20041;-77
2022/09/08 07:29:48;;;;;;;22.33;12.55;;;;;;;15.90;100.00;100781.53;5043026;28;20075;-77
2022/09/08 07:32:29;;;;;;;22.80;13.40;;;;;;;15.90;100.00;100786.81;5054150;28;20029;-77
2022/09/08 07:35:00;;;;;;;26.42;13.65;;;;;;;16.03;100.00;100796.75;5054819;28;20033;-77
2022/09/08 07:37:35;;;;;;;23.35;15.32;;;;;;;16.15;100.00;100789.13;5050362;28;20041;-77
2022/09/08 07:40:19;;;;;;;28.75;16.23;;;;;;;16.42;100.00;100787.88;5054438;28;20048;-77
2022/09/08 07:42:57;;;;;;;27.10;16.13;;;;;;;16.58;100.00;100780.94;5039970;28;20505;-77
2022/09/08 07:45:35;;;;;;;24.73;15.38;;;;;;;16.67;100.00;100791.00;5041410;28;20028;-77
2022/09/08 07:48:22;;;;;;;24.27;14.45;;;;;;;16.67;100.00;100784.88;5049423;28;20025;-77
2022/09/08 07:50:59;;;;;;;26.92;14.43;;;;;;;16.71;100.00;100784.69;5053277;28;20457;-76
2022/09/08 07:53:37;;;;;;;19.77;13.30;;;;;;;16.83;100.00;100778.81;5053859;28;20039;-77
2022/09/08 07:56:13;;;;;;;18.08;12.93;;;;;;;16.73;100.00;100789.84;5054325;28;20032;-77
2022/09/08 07:58:47;;;;;;;16.58;12.70;;;;;;;16.65;100.00;100790.25;5038895;28;20067;-77
2022/09/08 08:01:25;;;;;;;19.17;12.73;;;;;;;16.61;100.00;100797.44;5052344;28;20112;-77
2022/09/08 08:03:56;;;;;;;17.77;11.88;;;;;;;16.51;100.00;100806.72;5045308;28;20119;-77
2022/09/08 08:06:30;;;;;;;15.63;11.60;;;;;;;16.47;100.00;100793.75;5051310;28;20468;-76
2022/09/08 08:09:07;;;;;;;18.15;12.73;;;;;;;16.53;100.00;100798.72;5047871;28;20139;-75
2022/09/08 08:11:54;;;;;;;16.88;12.32;;;;;;;16.44;100.00;100802.66;5046656;28;20056;-74
2022/09/08 08:14:19;;;;;;;18.02;12.63;;;;;;;16.31;100.00;100796.28;5045000;28;20031;-74
2022/09/08 08:16:58;;;;;;;20.33;12.23;;;;;;;16.22;100.00;100794.97;5053875;28;20111;-74
2022/09/08 08:19:36;;;;;;;13.68;10.30;;;;;;;16.09;100.00;100799.09;5045458;28;20323;-74
2022/09/08 08:22:19;;;;;;;15.05;10.73;;;;;;;16.10;100.00;100809.53;5053869;28;20032;-74
2022/09/08 08:24:57;;;;;;;;;;;;;;;16.07;100.00;100804.41;5052333;28;20037;-74
2022/09/08 08:27:46;;;;;;;14.02;9.38;;;;;;;16.05;100.00;100798.38;5054509;28;19917;-73
2022/09/08 08:30:23;;;;;;;13.65;9.82;;;;;;;15.98;100.00;100811.88;5050206;28;20044;-76
2022/09/08 08:32:59;;;;;;;11.98;9.30;;;;;;;15.87;100.00;100801.88;5052561;28;20130;-76
2022/09/08 08:35:30;;;;;;;12.70;10.05;;;;;;;15.74;100.00;100801.56;5052957;28;20380;-79
2022/09/08 08:37:56;;;;;;;15.07;9.95;;;;;;;15.60;100.00;100802.16;5047984;28;20025;-76
2022/09/08 08:40:52;;;;;;;16.73;10.13;;;;;;;15.63;100.00;100803.78;5049605;28;20473;-76
2022/09/08 08:43:39;;;;;;;13.10;9.65;;;;;;;15.73;100.00;100799.88;5050227;28;20033;-74
2022/09/08 08:46:36;;;;;;;14.60;9.63;;;;;;;15.89;100.00;100803.50;5051034;28;20448;-74
2022/09/08 08:49:23;;;;;;;12.40;9.02;;;;;;;16.06;100.00;100805.34;5053449;28;20466;-74
2022/09/08 08:52:18;;;;;;;17.55;9.35;;;;;;;16.37;100.00;100806.50;5052897;28;20060;-74
2022/09/08 08:55:04;;;;;;;14.82;10.88;;;;;;;16.65;100.00;100802.56;5052134;28;20029;-74
2022/09/08 08:57:45;;;;;;;12.38;9.18;;;;;;;16.97;100.00;100800.94;5042581;28;20033;-73
2022/09/08 09:00:28;;;;;;;16.52;9.00;;;;;;;17.09;100.00;100795.06;5052385;28;20040;-73
2022/09/08 09:03:22;;;;;;;11.55;6.72;;;;;;;17.00;100.00;100801.69;5051145;28;20048;-76
2022/09/08 09:06:32;;;;;;;11.20;5.90;;;;;;;16.79;100.00;100803.59;5052382;28;20469;-76
2022/09/08 09:08:58;;;;;;;7.32;5.18;;;;;;;16.83;100.00;100804.28;5049606;28;20083;-77
2022/09/08 09:11:46;;;;;;;9.30;5.03;;;;;;;16.94;100.00;100793.19;5051334;28;20025;-77
2022/09/08 09:14:36;;;;;;;9.25;4.60;;;;;;;16.74;100.00;100797.69;5031098;28;20315;-77
2022/09/08 09:17:21;;;;;;;10.88;5.10;;;;;;;16.69;100.00;100790.94;5037991;28;20029;-77
2022/09/08 09:20:26;;;;;;;9.57;4.40;;;;;;;16.56;100.00;100802.06;5045113;28;20053;-76
2022/09/08 09:22:59;;;;;;;8.82;5.20;;;;;;;16.69;100.00;100793.56;5057415;28;20067;-77
2022/09/08 09:25:34;;;;;;;8.55;5.20;;;;;;;16.70;100.00;100790.00;5050175;28;20033;-77
2022/09/08 09:28:21;;;;;;;7.57;5.25;;;;;;;16.94;100.00;100793.19;5049736;28;20037;-77
2022/09/08 09:31:13;;;;;;;9.80;4.70;;;;;;;17.07;100.00;100787.25;5050293;28;20087;-76
2022/09/08 09:34:12;;;;;;;11.63;5.13;;;;;;;17.20;100.00;100795.38;5049473;28;20040;-77
2022/09/08 09:37:05;;;;;;;12.27;3.65;;;;;;;17.24;100.00;100798.72;5039955;28;20039;-77
2022/09/08 09:39:59;;;;;;;7.60;4.03;;;;;;;17.23;100.00;100787.31;5050413;28;20052;-77
2022/09/08 09:42:54;;;;;;;6.20;3.05;;;;;;;17.35;100.00;100785.81;5036380;28;20489;-77
2022/09/08 09:45:28;;;;;;;6.13;2.60;;;;;;;17.39;100.00;100792.63;5043780;28;20013;-76
2022/09/08 09:48:17;;;;;;;7.78;2.55;;;;;;;17.34;100.00;100793.81;5052181;28;20025;-77
2022/09/08 09:50:58;;;;;;;7.15;2.35;;;;;;;17.62;100.00;100801.09;5039898;28;20032;-77
2022/09/08 09:53:26;;;;;;;6.97;2.65;;;;;;;17.93;100.00;100788.00;5067384;28;20040;-76
2022/09/08 09:56:16;;;;;;;5.90;2.30;;;;;;;18.35;100.00;100797.09;5052606;28;20115;-76
2022/09/08 09:59:15;;;;;;;7.22;2.20;;;;;;;18.95;100.00;100786.56;5051736;28;20025;-76
2022/09/08 10:02:05;;;;;;;10.10;2.38;;;;;;;19.00;97.57;100790.72;5046996;28;20021;-76
2022/09/08 10:04:49;;;;;;;5.72;2.08;;;;;;;19.21;100.00;100788.63;5050746;28;20112;-76
2022/09/08 10:07:22;;;;;;;6.95;2.50;;;;;;;19.25;98.75;100795.41;5051922;28;20025;-77
2022/09/08 10:10:06;;;;;;;7.95;2.15;;;;;;;18.98;94.56;100803.19;5060179;28;20059;-73
2022/09/08 10:12:45;;;;;;;6.05;2.17;;;;;;;18.71;97.89;100799.41;5043190;28;20024;-74
2022/09/08 10:15:44;;;;;;;7.72;2.25;;;;;;;18.59;100.00;100799.25;5051546;28;20497;-73
2022/09/08 10:18:21;;;;;;;9.60;2.25;;;;;;;18.65;99.24;100798.91;5050887;28;20100;-73
2022/09/08 10:21:08;;;;;;;10.25;2.28;;;;;;;19.02;96.21;100802.91;5051482;28;20068;-73
2022/09/08 10:23:42;;;;;;;3.75;1.70;;;;;;;19.35;88.00;100797.38;5051104;28;20039;-73
2022/09/08 10:26:23;;;;;;;5.75;2.20;;;;;;;19.46;92.24;100807.34;5037556;28;20107;-74
2022/09/08 10:29:01;;;;;;;6.60;2.35;;;;;;;19.42;90.36;100806.69;5050828;28;20032;-73
2022/09/08 10:31:45;;;;;;;7.30;2.50;;;;;;;19.47;90.66;100806.38;5050240;28;20009;-73
2022/09/08 10:34:45;;;;;;;7.75;2.42;;;;;;;19.48;93.22;100807.22;5051459;28;20065;-73
2022/09/08 10:37:37;;;;;;;6.50;2.28;;;;;;;19.30;92.54;100804.75;5044773;28;20033;-73
2022/09/08 10:40:27;;;;;;;6.13;2.38;;;;;;;18.91;93.79;100805.34;5039915;28;20067;-73
2022/09/08 10:43:27;;;;;;;6.55;1.88;;;;;;;18.69;94.45;100803.91;5037034;28;20045;-73
2022/09/08 10:46:15;;;;;;;8.48;2.28;;;;;;;18.85;90.09;100801.28;5050660;28;20469;-73
2022/09/08 10:49:26;;;;;;;6.85;2.28;;;;;;;19.09;97.36;100792.84;5051082;28;20033;-73
2022/09/08 10:52:11;;;;;;;4.80;2.33;;;;;;;19.17;93.41;100780.03;5047567;28;20045;-73
2022/09/08 10:55:01;;;;;;;7.68;2.20;;;;;;;18.98;89.06;100790.00;5048928;28;20033;-73
2022/09/08 10:57:47;;;;;;;6.47;2.60;;;;;;;18.50;99.58;100787.44;5059826;28;20481;-74
2022/09/08 11:00:18;;;;;;;12.43;2.90;;;;;;;18.09;100.00;100787.16;5050623;28;20123;-74
2022/09/08 11:03:07;;;;;;;9.40;2.65;;;;;;;17.83;100.00;100796.50;5048171;28;20021;-74
2022/09/08 11:05:49;;;;;;;7.95;3.03;;;;;;;17.79;100.00;100785.28;5052909;28;20025;-74
2022/09/08 11:08:21;;;;;;;9.15;3.33;;;;;;;17.73;100.00;100791.69;5053263;28;20036;-78
2022/09/08 11:11:15;;;;;;;6.75;2.67;;;;;;;17.63;100.00;100779.09;5049339;28;20758;-77
2022/09/08 11:13:59;;;;;;;8.18;3.17;;;;;;;17.77;100.00;100785.34;5048139;28;20025;-77
2022/09/08 11:16:44;;;;;;;7.03;2.33;;;;;;;18.11;100.00;100777.34;5048550;28;20533;-77
2022/09/08 11:19:15;;;;;;;7.93;2.80;;;;;;;18.09;100.00;100779.25;5048683;28;20108;-77
2022/09/08 11:22:03;;;;;;;5.88;2.88;;;;;;;17.95;100.00;100780.84;5048760;28;20028;-77
2022/09/08 11:25:00;;;;;;;9.07;2.80;;;;;;;17.92;100.00;100781.03;5050025;28;20025;-76
2022/09/08 11:27:54;;;;;;;5.18;2.72;;;;;;;18.00;100.00;100784.06;5049927;28;20029;-77
2022/09/08 11:30:21;;;;;;;7.72;2.90;;;;;;;18.19;100.00;100772.50;5048786;28;20021;-76
2022/09/08 11:33:15;;;;;;;7.22;3.08;;;;;;;18.91;100.00;100777.16;5051253;28;20044;-76
2022/09/08 11:36:03;;;;;;;9.88;2.80;;;;;;;19.44;98.34;100771.34;5049632;28;20128;-76
2022/09/08 11:38:56;;;;;;;5.35;2.80;;;;;;;19.16;96.07;100765.09;5055324;28;20075;-76
2022/09/08 11:41:40;;;;;;;5.55;2.67;;;;;;;18.75;95.60;100767.56;5051675;28;20515;-77
2022/09/08 11:44:27;;;;;;;8.38;3.20;;;;;;;18.55;94.62;100768.72;5054350;28;20045;-76
2022/09/08 11:47:21;;;;;;;9.20;3.00;;;;;;;18.73;97.34;100767.66;5054244;28;20529;-76